sensor_id;sensor_type;location;lat;lon;timestamp;P1;durP1;ratioP1;P2;durP2;ratioP2
8650;SDS011;4363;52.346;14.516;2022-11-24T00:02:15;257.47;;;107.83;;
8650;SDS011;4363;52.346;14.516;2022-11-24T00:04:41;525.87;;;188.27;;
8650;SDS011;4363;52.346;14.516;2022-11-24T00:07:07;377.07;;;146.03;;
8650;SDS011;4363;52.346;14.516;2022-11-24T00:09:36;575.73;;;225.07;;
8650;SDS011;4363;52.346;14.516;2022-11-24T00:12:03;247.30;;;110.23;;
8650;SDS011;4363;52.346;14.516;2022-11-24T00:14:28;420.77;;;169.90;;
8650;SDS011;4363;52.346;14.516;2022-11-24T00:16:54;458.90;;;162.57;;
8650;SDS011;4363;52.346;14.516;2022-11-24T00:19:20;518.03;;;188.10;;
8650;SDS011;4363;52.346;14.516;2022-11-24T00:21:47;633.80;;;245.73;;
8650;SDS011;4363;52.346;14.516;2022-11-24T00:24:13;276.93;;;114.97;;
8650;SDS011;4363;52.346;14.516;2022-11-24T00:26:39;486.47;;;194.47;;
8650;SDS011;4363;52.346;14.516;2022-11-24T00:29:06;335.43;;;124.07;;
8650;SDS011;4363;52.346;14.516;2022-11-24T00:31:33;352.83;;;126.47;;
8650;SDS011;4363;52.346;14.516;2022-11-24T00:34:01;458.50;;;162.70;;
8650;SDS011;4363;52.346;14.516;2022-11-24T00:36:28;399.60;;;155.10;;
8650;SDS011;4363;52.346;14.516;2022-11-24T00:38:55;443.73;;;170.47;;
8650;SDS011;4363;52.346;14.516;2022-11-24T00:41:22;343.17;;;121.93;;
8650;SDS011;4363;52.346;14.516;2022-11-24T00:43:48;529.90;;;181.87;;
8650;SDS011;4363;52.346;14.516;2022-11-24T00:46:14;382.10;;;119.07;;
8650;SDS011;4363;52.346;14.516;2022-11-24T00:48:40;357.67;;;115.30;;
8650;SDS011;4363;52.346;14.516;2022-11-24T00:51:07;488.27;;;150.40;;
8650;SDS011;4363;52.346;14.516;2022-11-24T00:53:37;476.30;;;157.57;;
8650;SDS011;4363;52.346;14.516;2022-11-24T00:56:03;221.93;;;93.10;;
8650;SDS011;4363;52.346;14.516;2022-11-24T00:58:29;323.33;;;112.60;;
8650;SDS011;4363;52.346;14.516;2022-11-24T01:01:00;442.03;;;145.53;;
8650;SDS011;4363;52.346;14.516;2022-11-24T01:03:26;242.47;;;98.27;;
8650;SDS011;4363;52.346;14.516;2022-11-24T01:05:52;407.27;;;143.53;;
8650;SDS011;4363;52.346;14.516;2022-11-24T01:08:18;266.80;;;101.70;;
8650;SDS011;4363;52.346;14.516;2022-11-24T01:10:44;415.70;;;144.63;;
8650;SDS011;4363;52.346;14.516;2022-11-24T01:13:10;292.27;;;112.57;;
8650;SDS011;4363;52.346;14.516;2022-11-24T01:15:37;412.97;;;141.50;;
8650;SDS011;4363;52.346;14.516;2022-11-24T01:18:04;442.67;;;163.43;;
8650;SDS011;4363;52.346;14.516;2022-11-24T01:20:31;261.63;;;106.93;;
8650;SDS011;4363;52.346;14.516;2022-11-24T01:22:57;395.07;;;148.83;;
8650;SDS011;4363;52.346;14.516;2022-11-24T01:25:23;342.40;;;132.20;;
8650;SDS011;4363;52.346;14.516;2022-11-24T01:27:49;316.27;;;124.27;;
8650;SDS011;4363;52.346;14.516;2022-11-24T01:30:15;294.27;;;117.07;;
8650;SDS011;4363;52.346;14.516;2022-11-24T01:32:41;400.17;;;142.73;;
8650;SDS011;4363;52.346;14.516;2022-11-24T01:35:07;366.13;;;129.23;;
8650;SDS011;4363;52.346;14.516;2022-11-24T01:37:34;390.70;;;156.77;;
8650;SDS011;4363;52.346;14.516;2022-11-24T01:40:00;431.37;;;160.47;;
8650;SDS011;4363;52.346;14.516;2022-11-24T01:42:35;394.47;;;143.00;;
8650;SDS011;4363;52.346;14.516;2022-11-24T01:47:46;380.17;;;147.40;;
8650;SDS011;4363;52.346;14.516;2022-11-24T01:50:12;484.10;;;179.67;;
8650;SDS011;4363;52.346;14.516;2022-11-24T01:52:41;424.60;;;157.87;;
8650;SDS011;4363;52.346;14.516;2022-11-24T01:55:11;412.60;;;154.13;;
8650;SDS011;4363;52.346;14.516;2022-11-24T01:57:40;312.50;;;123.03;;
8650;SDS011;4363;52.346;14.516;2022-11-24T02:00:08;437.20;;;162.60;;
8650;SDS011;4363;52.346;14.516;2022-11-24T02:02:35;319.77;;;132.57;;
8650;SDS011;4363;52.346;14.516;2022-11-24T02:05:12;411.97;;;162.33;;
8650;SDS011;4363;52.346;14.516;2022-11-24T02:07:38;290.23;;;124.43;;
8650;SDS011;4363;52.346;14.516;2022-11-24T02:10:09;449.53;;;175.57;;
8650;SDS011;4363;52.346;14.516;2022-11-24T02:12:36;467.17;;;183.90;;
8650;SDS011;4363;52.346;14.516;2022-11-24T02:15:04;454.53;;;171.07;;
8650;SDS011;4363;52.346;14.516;2022-11-24T02:17:30;554.47;;;213.57;;
8650;SDS011;4363;52.346;14.516;2022-11-24T02:19:57;446.47;;;171.13;;
8650;SDS011;4363;52.346;14.516;2022-11-24T02:24:57;489.90;;;171.13;;
8650;SDS011;4363;52.346;14.516;2022-11-24T02:27:25;571.67;;;230.77;;
8650;SDS011;4363;52.346;14.516;2022-11-24T02:29:51;366.60;;;127.17;;
8650;SDS011;4363;52.346;14.516;2022-11-24T02:32:17;470.73;;;182.73;;
8650;SDS011;4363;52.346;14.516;2022-11-24T02:34:43;427.97;;;167.20;;
8650;SDS011;4363;52.346;14.516;2022-11-24T02:37:09;220.23;;;70.87;;
8650;SDS011;4363;52.346;14.516;2022-11-24T02:39:35;306.60;;;91.23;;
8650;SDS011;4363;52.346;14.516;2022-11-24T02:42:05;372.17;;;101.77;;
8650;SDS011;4363;52.346;14.516;2022-11-24T02:44:34;320.53;;;94.80;;
8650;SDS011;4363;52.346;14.516;2022-11-24T02:47:02;345.57;;;107.67;;
8650;SDS011;4363;52.346;14.516;2022-11-24T02:49:28;326.93;;;102.40;;
8650;SDS011;4363;52.346;14.516;2022-11-24T02:51:55;498.20;;;160.67;;
8650;SDS011;4363;52.346;14.516;2022-11-24T02:54:21;330.53;;;125.03;;
8650;SDS011;4363;52.346;14.516;2022-11-24T02:56:47;586.37;;;231.37;;
8650;SDS011;4363;52.346;14.516;2022-11-24T02:59:13;227.40;;;84.20;;
8650;SDS011;4363;52.346;14.516;2022-11-24T03:01:39;268.47;;;87.23;;
8650;SDS011;4363;52.346;14.516;2022-11-24T03:04:05;375.27;;;125.37;;
8650;SDS011;4363;52.346;14.516;2022-11-24T03:06:31;198.33;;;81.17;;
8650;SDS011;4363;52.346;14.516;2022-11-24T03:08:57;424.60;;;146.70;;
8650;SDS011;4363;52.346;14.516;2022-11-24T03:11:23;387.67;;;157.27;;
8650;SDS011;4363;52.346;14.516;2022-11-24T03:13:49;528.90;;;211.97;;
8650;SDS011;4363;52.346;14.516;2022-11-24T03:16:15;204.63;;;49.23;;
8650;SDS011;4363;52.346;14.516;2022-11-24T03:18:41;330.43;;;69.63;;
8650;SDS011;4363;52.346;14.516;2022-11-24T03:21:07;526.53;;;122.17;;
8650;SDS011;4363;52.346;14.516;2022-11-24T03:23:33;372.33;;;86.67;;
8650;SDS011;4363;52.346;14.516;2022-11-24T03:26:08;324.87;;;70.93;;
8650;SDS011;4363;52.346;14.516;2022-11-24T03:28:34;184.33;;;40.13;;
8650;SDS011;4363;52.346;14.516;2022-11-24T03:31:01;283.10;;;64.47;;
8650;SDS011;4363;52.346;14.516;2022-11-24T03:33:27;173.50;;;40.70;;
8650;SDS011;4363;52.346;14.516;2022-11-24T03:35:53;364.97;;;79.07;;
8650;SDS011;4363;52.346;14.516;2022-11-24T03:38:19;327.60;;;71.63;;
8650;SDS011;4363;52.346;14.516;2022-11-24T03:40:48;234.47;;;50.67;;
8650;SDS011;4363;52.346;14.516;2022-11-24T03:43:14;386.43;;;83.83;;
8650;SDS011;4363;52.346;14.516;2022-11-24T03:45:43;337.07;;;69.47;;
8650;SDS011;4363;52.346;14.516;2022-11-24T03:48:10;466.20;;;95.37;;
8650;SDS011;4363;52.346;14.516;2022-11-24T03:50:36;349.23;;;75.80;;
8650;SDS011;4363;52.346;14.516;2022-11-24T03:53:05;444.73;;;103.37;;
8650;SDS011;4363;52.346;14.516;2022-11-24T03:55:31;244.70;;;54.93;;
8650;SDS011;4363;52.346;14.516;2022-11-24T03:57:57;307.47;;;71.47;;
8650;SDS011;4363;52.346;14.516;2022-11-24T04:00:23;376.20;;;86.30;;
8650;SDS011;4363;52.346;14.516;2022-11-24T04:02:49;288.90;;;62.23;;
8650;SDS011;4363;52.346;14.516;2022-11-24T04:05:15;451.37;;;94.57;;
8650;SDS011;4363;52.346;14.516;2022-11-24T04:07:41;184.07;;;40.90;;
8650;SDS011;4363;52.346;14.516;2022-11-24T04:10:07;299.10;;;64.03;;
8650;SDS011;4363;52.346;14.516;2022-11-24T04:12:33;197.67;;;44.33;;
8650;SDS011;4363;52.346;14.516;2022-11-24T04:15:09;459.27;;;111.63;;
8650;SDS011;4363;52.346;14.516;2022-11-24T04:17:35;408.43;;;93.83;;
8650;SDS011;4363;52.346;14.516;2022-11-24T04:20:01;452.17;;;105.37;;
8650;SDS011;4363;52.346;14.516;2022-11-24T04:22:28;229.60;;;51.80;;
8650;SDS011;4363;52.346;14.516;2022-11-24T04:24:54;285.47;;;67.27;;
8650;SDS011;4363;52.346;14.516;2022-11-24T04:27:20;425.00;;;100.17;;
8650;SDS011;4363;52.346;14.516;2022-11-24T04:29:46;367.30;;;80.10;;
8650;SDS011;4363;52.346;14.516;2022-11-24T04:32:15;356.03;;;81.97;;
8650;SDS011;4363;52.346;14.516;2022-11-24T04:34:41;262.83;;;60.30;;
8650;SDS011;4363;52.346;14.516;2022-11-24T04:37:07;329.17;;;72.90;;
8650;SDS011;4363;52.346;14.516;2022-11-24T04:39:33;185.60;;;43.80;;
8650;SDS011;4363;52.346;14.516;2022-11-24T04:41:59;414.63;;;85.60;;
8650;SDS011;4363;52.346;14.516;2022-11-24T04:44:26;483.37;;;106.80;;
8650;SDS011;4363;52.346;14.516;2022-11-24T04:46:51;225.07;;;51.17;;
8650;SDS011;4363;52.346;14.516;2022-11-24T04:49:20;406.73;;;86.13;;
8650;SDS011;4363;52.346;14.516;2022-11-24T04:51:46;193.47;;;43.03;;
8650;SDS011;4363;52.346;14.516;2022-11-24T04:54:13;377.07;;;98.73;;
8650;SDS011;4363;52.346;14.516;2022-11-24T04:56:39;200.13;;;46.23;;
8650;SDS011;4363;52.346;14.516;2022-11-24T04:59:05;299.60;;;64.10;;
8650;SDS011;4363;52.346;14.516;2022-11-24T05:01:31;353.43;;;79.57;;
8650;SDS011;4363;52.346;14.516;2022-11-24T05:03:57;257.87;;;58.73;;
8650;SDS011;4363;52.346;14.516;2022-11-24T05:06:24;306.20;;;65.23;;
8650;SDS011;4363;52.346;14.516;2022-11-24T05:08:50;189.33;;;44.83;;
8650;SDS011;4363;52.346;14.516;2022-11-24T05:11:17;346.23;;;80.40;;
8650;SDS011;4363;52.346;14.516;2022-11-24T05:13:43;381.47;;;86.07;;
8650;SDS011;4363;52.346;14.516;2022-11-24T05:16:10;459.83;;;108.60;;
8650;SDS011;4363;52.346;14.516;2022-11-24T05:18:36;245.37;;;55.20;;
8650;SDS011;4363;52.346;14.516;2022-11-24T05:21:03;353.63;;;79.63;;
8650;SDS011;4363;52.346;14.516;2022-11-24T05:23:29;429.00;;;100.47;;
8650;SDS011;4363;52.346;14.516;2022-11-24T05:26:01;329.07;;;69.70;;
8650;SDS011;4363;52.346;14.516;2022-11-24T05:28:27;332.80;;;77.17;;
8650;SDS011;4363;52.346;14.516;2022-11-24T05:30:53;199.10;;;46.47;;
8650;SDS011;4363;52.346;14.516;2022-11-24T05:33:25;367.90;;;83.80;;
8650;SDS011;4363;52.346;14.516;2022-11-24T05:35:52;271.43;;;63.00;;
8650;SDS011;4363;52.346;14.516;2022-11-24T05:38:19;495.60;;;109.70;;
8650;SDS011;4363;52.346;14.516;2022-11-24T05:40:47;317.17;;;70.53;;
8650;SDS011;4363;52.346;14.516;2022-11-24T05:43:14;341.10;;;84.00;;
8650;SDS011;4363;52.346;14.516;2022-11-24T05:45:40;392.20;;;93.30;;
8650;SDS011;4363;52.346;14.516;2022-11-24T05:48:07;279.97;;;59.53;;
8650;SDS011;4363;52.346;14.516;2022-11-24T05:50:35;395.87;;;94.67;;
8650;SDS011;4363;52.346;14.516;2022-11-24T05:53:02;320.90;;;72.30;;
8650;SDS011;4363;52.346;14.516;2022-11-24T05:55:28;245.63;;;50.23;;
8650;SDS011;4363;52.346;14.516;2022-11-24T05:58:12;272.57;;;56.50;;
8650;SDS011;4363;52.346;14.516;2022-11-24T06:00:38;403.30;;;80.03;;
8650;SDS011;4363;52.346;14.516;2022-11-24T06:03:05;308.17;;;63.23;;
8650;SDS011;4363;52.346;14.516;2022-11-24T06:05:31;282.83;;;61.87;;
8650;SDS011;4363;52.346;14.516;2022-11-24T06:07:57;298.13;;;68.30;;
8650;SDS011;4363;52.346;14.516;2022-11-24T06:10:24;308.10;;;66.43;;
8650;SDS011;4363;52.346;14.516;2022-11-24T06:12:50;198.10;;;44.17;;
8650;SDS011;4363;52.346;14.516;2022-11-24T06:15:16;346.70;;;81.20;;
8650;SDS011;4363;52.346;14.516;2022-11-24T06:17:42;295.07;;;65.20;;
8650;SDS011;4363;52.346;14.516;2022-11-24T06:20:09;253.53;;;57.27;;
8650;SDS011;4363;52.346;14.516;2022-11-24T06:22:35;381.17;;;88.07;;
8650;SDS011;4363;52.346;14.516;2022-11-24T06:25:02;351.17;;;83.93;;
8650;SDS011;4363;52.346;14.516;2022-11-24T06:27:28;319.83;;;75.87;;
8650;SDS011;4363;52.346;14.516;2022-11-24T06:29:54;232.07;;;57.03;;
8650;SDS011;4363;52.346;14.516;2022-11-24T06:32:20;348.77;;;85.67;;
8650;SDS011;4363;52.346;14.516;2022-11-24T06:34:48;393.33;;;99.27;;
8650;SDS011;4363;52.346;14.516;2022-11-24T06:37:14;467.33;;;103.13;;
8650;SDS011;4363;52.346;14.516;2022-11-24T06:39:39;437.90;;;101.43;;
8650;SDS011;4363;52.346;14.516;2022-11-24T06:42:05;346.73;;;82.97;;
8650;SDS011;4363;52.346;14.516;2022-11-24T06:44:31;380.17;;;81.53;;
8650;SDS011;4363;52.346;14.516;2022-11-24T06:46:57;364.17;;;73.67;;
8650;SDS011;4363;52.346;14.516;2022-11-24T06:49:24;406.13;;;87.00;;
8650;SDS011;4363;52.346;14.516;2022-11-24T06:51:50;219.00;;;51.07;;
8650;SDS011;4363;52.346;14.516;2022-11-24T06:54:16;434.87;;;106.03;;
8650;SDS011;4363;52.346;14.516;2022-11-24T06:56:45;442.03;;;96.27;;
8650;SDS011;4363;52.346;14.516;2022-11-24T06:59:18;395.17;;;78.63;;
8650;SDS011;4363;52.346;14.516;2022-11-24T07:01:45;342.13;;;80.10;;
8650;SDS011;4363;52.346;14.516;2022-11-24T07:04:11;334.90;;;75.97;;
8650;SDS011;4363;52.346;14.516;2022-11-24T07:06:37;398.23;;;99.67;;
8650;SDS011;4363;52.346;14.516;2022-11-24T07:09:07;342.30;;;83.97;;
8650;SDS011;4363;52.346;14.516;2022-11-24T07:11:34;338.30;;;77.30;;
8650;SDS011;4363;52.346;14.516;2022-11-24T07:14:00;272.90;;;61.60;;
8650;SDS011;4363;52.346;14.516;2022-11-24T07:16:26;206.57;;;45.53;;
8650;SDS011;4363;52.346;14.516;2022-11-24T07:18:52;326.23;;;73.80;;
8650;SDS011;4363;52.346;14.516;2022-11-24T07:21:19;337.30;;;69.53;;
8650;SDS011;4363;52.346;14.516;2022-11-24T07:23:49;302.83;;;66.83;;
8650;SDS011;4363;52.346;14.516;2022-11-24T07:26:16;351.13;;;80.20;;
8650;SDS011;4363;52.346;14.516;2022-11-24T07:28:42;262.07;;;56.67;;
8650;SDS011;4363;52.346;14.516;2022-11-24T07:31:12;424.27;;;104.57;;
8650;SDS011;4363;52.346;14.516;2022-11-24T07:33:39;402.00;;;88.23;;
8650;SDS011;4363;52.346;14.516;2022-11-24T07:36:05;477.30;;;101.10;;
8650;SDS011;4363;52.346;14.516;2022-11-24T07:38:31;315.47;;;66.27;;
8650;SDS011;4363;52.346;14.516;2022-11-24T07:40:58;370.10;;;76.70;;
8650;SDS011;4363;52.346;14.516;2022-11-24T07:43:25;434.87;;;93.40;;
8650;SDS011;4363;52.346;14.516;2022-11-24T07:45:53;292.30;;;62.43;;
8650;SDS011;4363;52.346;14.516;2022-11-24T07:48:20;512.10;;;110.57;;
8650;SDS011;4363;52.346;14.516;2022-11-24T07:50:46;303.90;;;62.57;;
8650;SDS011;4363;52.346;14.516;2022-11-24T07:53:12;247.13;;;54.33;;
8650;SDS011;4363;52.346;14.516;2022-11-24T07:55:38;381.60;;;96.80;;
8650;SDS011;4363;52.346;14.516;2022-11-24T07:58:04;317.10;;;69.20;;
8650;SDS011;4363;52.346;14.516;2022-11-24T08:00:30;392.23;;;83.33;;
8650;SDS011;4363;52.346;14.516;2022-11-24T08:02:56;218.50;;;50.73;;
8650;SDS011;4363;52.346;14.516;2022-11-24T08:05:26;443.33;;;111.90;;
8650;SDS011;4363;52.346;14.516;2022-11-24T08:07:52;367.80;;;82.33;;
8650;SDS011;4363;52.346;14.516;2022-11-24T08:10:18;284.30;;;59.37;;
8650;SDS011;4363;52.346;14.516;2022-11-24T08:12:44;308.27;;;73.30;;
8650;SDS011;4363;52.346;14.516;2022-11-24T08:15:10;238.23;;;53.00;;
8650;SDS011;4363;52.346;14.516;2022-11-24T08:17:37;316.80;;;65.17;;
8650;SDS011;4363;52.346;14.516;2022-11-24T08:20:06;235.97;;;54.10;;
8650;SDS011;4363;52.346;14.516;2022-11-24T08:22:33;266.17;;;61.23;;
8650;SDS011;4363;52.346;14.516;2022-11-24T08:24:59;238.00;;;51.80;;
8650;SDS011;4363;52.346;14.516;2022-11-24T08:27:28;357.53;;;78.30;;
8650;SDS011;4363;52.346;14.516;2022-11-24T08:29:55;406.90;;;96.67;;
8650;SDS011;4363;52.346;14.516;2022-11-24T08:32:21;460.90;;;116.13;;
8650;SDS011;4363;52.346;14.516;2022-11-24T08:34:47;247.87;;;54.53;;
8650;SDS011;4363;52.346;14.516;2022-11-24T08:37:16;265.87;;;58.50;;
8650;SDS011;4363;52.346;14.516;2022-11-24T08:39:42;339.07;;;71.70;;
8650;SDS011;4363;52.346;14.516;2022-11-24T08:42:08;433.33;;;108.47;;
8650;SDS011;4363;52.346;14.516;2022-11-24T08:44:35;457.50;;;118.90;;
8650;SDS011;4363;52.346;14.516;2022-11-24T08:47:00;423.43;;;92.27;;
8650;SDS011;4363;52.346;14.516;2022-11-24T08:49:27;421.10;;;98.63;;
8650;SDS011;4363;52.346;14.516;2022-11-24T08:51:55;260.87;;;61.97;;
8650;SDS011;4363;52.346;14.516;2022-11-24T08:54:21;418.90;;;94.07;;
8650;SDS011;4363;52.346;14.516;2022-11-24T08:56:48;400.27;;;89.60;;
8650;SDS011;4363;52.346;14.516;2022-11-24T08:59:14;418.03;;;100.47;;
8650;SDS011;4363;52.346;14.516;2022-11-24T09:01:40;337.87;;;78.10;;
8650;SDS011;4363;52.346;14.516;2022-11-24T09:04:06;212.03;;;47.47;;
8650;SDS011;4363;52.346;14.516;2022-11-24T09:06:34;355.97;;;85.50;;
8650;SDS011;4363;52.346;14.516;2022-11-24T09:09:01;373.60;;;85.93;;
8650;SDS011;4363;52.346;14.516;2022-11-24T09:11:27;244.03;;;57.03;;
8650;SDS011;4363;52.346;14.516;2022-11-24T09:13:53;327.63;;;69.10;;
8650;SDS011;4363;52.346;14.516;2022-11-24T09:16:20;300.07;;;63.97;;
8650;SDS011;4363;52.346;14.516;2022-11-24T09:18:47;257.93;;;59.93;;
8650;SDS011;4363;52.346;14.516;2022-11-24T09:21:17;300.13;;;67.13;;
8650;SDS011;4363;52.346;14.516;2022-11-24T09:23:44;386.77;;;91.03;;
8650;SDS011;4363;52.346;14.516;2022-11-24T09:26:14;172.43;;;39.90;;
8650;SDS011;4363;52.346;14.516;2022-11-24T09:28:41;256.70;;;56.97;;
8650;SDS011;4363;52.346;14.516;2022-11-24T09:31:08;202.40;;;46.23;;
8650;SDS011;4363;52.346;14.516;2022-11-24T09:33:35;347.90;;;75.17;;
8650;SDS011;4363;52.346;14.516;2022-11-24T09:36:05;293.80;;;69.70;;
8650;SDS011;4363;52.346;14.516;2022-11-24T09:38:31;344.33;;;70.80;;
8650;SDS011;4363;52.346;14.516;2022-11-24T09:46:25;311.27;;;69.77;;
8650;SDS011;4363;52.346;14.516;2022-11-24T09:48:56;246.70;;;56.10;;
8650;SDS011;4363;52.346;14.516;2022-11-24T09:51:23;251.10;;;56.93;;
8650;SDS011;4363;52.346;14.516;2022-11-24T09:54:08;311.27;;;72.97;;
8650;SDS011;4363;52.346;14.516;2022-11-24T09:56:35;149.90;;;35.00;;
8650;SDS011;4363;52.346;14.516;2022-11-24T10:01:33;265.53;;;57.93;;
8650;SDS011;4363;52.346;14.516;2022-11-24T10:04:02;232.63;;;53.13;;
8650;SDS011;4363;52.346;14.516;2022-11-24T10:22:19;216.27;;;54.30;;
8650;SDS011;4363;52.346;14.516;2022-11-24T10:27:34;306.73;;;69.30;;
8650;SDS011;4363;52.346;14.516;2022-11-24T10:30:23;370.67;;;82.47;;
8650;SDS011;4363;52.346;14.516;2022-11-24T10:33:30;261.73;;;62.03;;
8650;SDS011;4363;52.346;14.516;2022-11-24T10:35:42;243.77;;;57.13;;
8650;SDS011;4363;52.346;14.516;2022-11-24T10:41:23;171.47;;;40.00;;
8650;SDS011;4363;52.346;14.516;2022-11-24T10:43:51;285.20;;;61.43;;
8650;SDS011;4363;52.346;14.516;2022-11-24T10:46:18;261.47;;;57.43;;
8650;SDS011;4363;52.346;14.516;2022-11-24T10:48:48;300.63;;;68.47;;
8650;SDS011;4363;52.346;14.516;2022-11-24T10:51:38;357.37;;;83.83;;
8650;SDS011;4363;52.346;14.516;2022-11-24T10:54:04;224.67;;;54.93;;
8650;SDS011;4363;52.346;14.516;2022-11-24T10:56:38;299.60;;;66.93;;
8650;SDS011;4363;52.346;14.516;2022-11-24T11:01:50;176.80;;;40.37;;
8650;SDS011;4363;52.346;14.516;2022-11-24T11:04:26;332.30;;;72.27;;
8650;SDS011;4363;52.346;14.516;2022-11-24T11:07:14;296.03;;;68.93;;
8650;SDS011;4363;52.346;14.516;2022-11-24T11:09:39;427.97;;;105.70;;
8650;SDS011;4363;52.346;14.516;2022-11-24T11:12:09;506.40;;;135.90;;
8650;SDS011;4363;52.346;14.516;2022-11-24T11:14:35;338.67;;;84.00;;
8650;SDS011;4363;52.346;14.516;2022-11-24T11:17:02;471.77;;;110.53;;
8650;SDS011;4363;52.346;14.516;2022-11-24T11:22:02;131.10;;;32.87;;
8650;SDS011;4363;52.346;14.516;2022-11-24T11:24:28;323.37;;;71.70;;
8650;SDS011;4363;52.346;14.516;2022-11-24T11:26:58;340.70;;;74.57;;
8650;SDS011;4363;52.346;14.516;2022-11-24T11:29:25;154.30;;;36.37;;
8650;SDS011;4363;52.346;14.516;2022-11-24T11:31:59;293.13;;;63.17;;
8650;SDS011;4363;52.346;14.516;2022-11-24T11:34:26;362.20;;;82.27;;
8650;SDS011;4363;52.346;14.516;2022-11-24T11:36:55;277.40;;;59.47;;
8650;SDS011;4363;52.346;14.516;2022-11-24T11:42:18;399.53;;;83.67;;
8650;SDS011;4363;52.346;14.516;2022-11-24T11:50:07;357.20;;;70.23;;
8650;SDS011;4363;52.346;14.516;2022-11-24T11:58:21;226.07;;;50.87;;
8650;SDS011;4363;52.346;14.516;2022-11-24T12:00:52;472.90;;;100.73;;
8650;SDS011;4363;52.346;14.516;2022-11-24T12:03:26;263.20;;;57.50;;
8650;SDS011;4363;52.346;14.516;2022-11-24T12:06:04;440.37;;;91.20;;
8650;SDS011;4363;52.346;14.516;2022-11-24T12:08:49;329.87;;;63.63;;
8650;SDS011;4363;52.346;14.516;2022-11-24T12:11:20;336.87;;;66.97;;
8650;SDS011;4363;52.346;14.516;2022-11-24T12:14:03;223.03;;;48.50;;
8650;SDS011;4363;52.346;14.516;2022-11-24T12:19:22;477.90;;;95.33;;
8650;SDS011;4363;52.346;14.516;2022-11-24T12:21:56;297.80;;;62.83;;
8650;SDS011;4363;52.346;14.516;2022-11-24T12:24:34;414.47;;;94.13;;
8650;SDS011;4363;52.346;14.516;2022-11-24T12:27:11;317.70;;;63.03;;
8650;SDS011;4363;52.346;14.516;2022-11-24T12:35:43;395.47;;;83.80;;
8650;SDS011;4363;52.346;14.516;2022-11-24T12:37:45;382.57;;;81.73;;
8650;SDS011;4363;52.346;14.516;2022-11-24T12:40:24;311.73;;;61.80;;
8650;SDS011;4363;52.346;14.516;2022-11-24T12:42:58;326.67;;;69.53;;
8650;SDS011;4363;52.346;14.516;2022-11-24T12:45:33;228.73;;;54.77;;
8650;SDS011;4363;52.346;14.516;2022-11-24T12:48:11;322.67;;;70.83;;
8650;SDS011;4363;52.346;14.516;2022-11-24T12:50:38;469.00;;;94.13;;
8650;SDS011;4363;52.346;14.516;2022-11-24T12:53:21;453.93;;;91.47;;
8650;SDS011;4363;52.346;14.516;2022-11-24T12:55:48;185.87;;;43.20;;
8650;SDS011;4363;52.346;14.516;2022-11-24T13:00:46;370.77;;;72.00;;
8650;SDS011;4363;52.346;14.516;2022-11-24T13:06:15;185.60;;;40.30;;
8650;SDS011;4363;52.346;14.516;2022-11-24T13:08:42;410.60;;;87.67;;
8650;SDS011;4363;52.346;14.516;2022-11-24T13:13:59;274.40;;;63.17;;
8650;SDS011;4363;52.346;14.516;2022-11-24T13:16:25;216.00;;;46.10;;
8650;SDS011;4363;52.346;14.516;2022-11-24T13:18:52;432.83;;;80.37;;
8650;SDS011;4363;52.346;14.516;2022-11-24T13:24:03;438.20;;;81.17;;
8650;SDS011;4363;52.346;14.516;2022-11-24T13:26:46;199.13;;;42.10;;
8650;SDS011;4363;52.346;14.516;2022-11-24T13:39:58;361.17;;;70.47;;
8650;SDS011;4363;52.346;14.516;2022-11-24T13:42:25;434.20;;;88.23;;
8650;SDS011;4363;52.346;14.516;2022-11-24T13:44:58;190.20;;;42.23;;
8650;SDS011;4363;52.346;14.516;2022-11-24T13:50:00;282.23;;;58.67;;
8650;SDS011;4363;52.346;14.516;2022-11-24T13:57:39;330.53;;;64.40;;
8650;SDS011;4363;52.346;14.516;2022-11-24T14:00:23;202.20;;;43.23;;
8650;SDS011;4363;52.346;14.516;2022-11-24T14:02:50;295.33;;;57.07;;
8650;SDS011;4363;52.346;14.516;2022-11-24T14:05:17;415.20;;;80.33;;
8650;SDS011;4363;52.346;14.516;2022-11-24T14:07:44;321.40;;;66.57;;
8650;SDS011;4363;52.346;14.516;2022-11-24T14:10:14;351.00;;;72.13;;
8650;SDS011;4363;52.346;14.516;2022-11-24T14:12:40;291.83;;;58.70;;
8650;SDS011;4363;52.346;14.516;2022-11-24T14:15:19;445.33;;;96.07;;
8650;SDS011;4363;52.346;14.516;2022-11-24T14:17:46;416.77;;;79.87;;
8650;SDS011;4363;52.346;14.516;2022-11-24T14:20:17;418.57;;;86.93;;
8650;SDS011;4363;52.346;14.516;2022-11-24T14:22:46;166.07;;;34.93;;
8650;SDS011;4363;52.346;14.516;2022-11-24T14:25:18;200.90;;;39.70;;
8650;SDS011;4363;52.346;14.516;2022-11-24T14:27:45;302.63;;;63.70;;
8650;SDS011;4363;52.346;14.516;2022-11-24T14:32:37;298.40;;;63.17;;
8650;SDS011;4363;52.346;14.516;2022-11-24T14:35:21;328.90;;;65.43;;
8650;SDS011;4363;52.346;14.516;2022-11-24T14:37:47;256.60;;;50.50;;
8650;SDS011;4363;52.346;14.516;2022-11-24T14:42:57;315.97;;;58.07;;
8650;SDS011;4363;52.346;14.516;2022-11-24T14:45:23;208.30;;;43.13;;
8650;SDS011;4363;52.346;14.516;2022-11-24T14:47:49;349.83;;;69.30;;
8650;SDS011;4363;52.346;14.516;2022-11-24T14:50:16;319.73;;;58.83;;
8650;SDS011;4363;52.346;14.516;2022-11-24T14:52:44;290.67;;;55.83;;
8650;SDS011;4363;52.346;14.516;2022-11-24T14:55:21;360.73;;;68.80;;
8650;SDS011;4363;52.346;14.516;2022-11-24T14:57:47;334.87;;;63.93;;
8650;SDS011;4363;52.346;14.516;2022-11-24T15:02:53;184.97;;;36.40;;
8650;SDS011;4363;52.346;14.516;2022-11-24T15:05:21;265.40;;;52.47;;
8650;SDS011;4363;52.346;14.516;2022-11-24T15:07:48;459.83;;;89.03;;
8650;SDS011;4363;52.346;14.516;2022-11-24T15:10:31;331.57;;;60.87;;
8650;SDS011;4363;52.346;14.516;2022-11-24T15:12:58;178.90;;;35.80;;
8650;SDS011;4363;52.346;14.516;2022-11-24T15:15:37;354.07;;;67.73;;
8650;SDS011;4363;52.346;14.516;2022-11-24T15:18:04;170.67;;;35.13;;
8650;SDS011;4363;52.346;14.516;2022-11-24T15:20:31;332.87;;;64.13;;
8650;SDS011;4363;52.346;14.516;2022-11-24T15:25:37;392.13;;;78.70;;
8650;SDS011;4363;52.346;14.516;2022-11-24T15:28:03;351.03;;;70.63;;
8650;SDS011;4363;52.346;14.516;2022-11-24T15:30:32;402.97;;;79.23;;
8650;SDS011;4363;52.346;14.516;2022-11-24T15:32:58;277.67;;;52.87;;
8650;SDS011;4363;52.346;14.516;2022-11-24T15:35:25;331.10;;;60.80;;
8650;SDS011;4363;52.346;14.516;2022-11-24T15:37:51;278.50;;;51.43;;
8650;SDS011;4363;52.346;14.516;2022-11-24T15:40:17;321.13;;;60.73;;
8650;SDS011;4363;52.346;14.516;2022-11-24T15:42:45;291.40;;;62.80;;
8650;SDS011;4363;52.346;14.516;2022-11-24T15:45:14;337.37;;;59.13;;
8650;SDS011;4363;52.346;14.516;2022-11-24T15:47:40;380.77;;;73.60;;
8650;SDS011;4363;52.346;14.516;2022-11-24T15:50:06;184.33;;;36.47;;
8650;SDS011;4363;52.346;14.516;2022-11-24T15:52:32;288.20;;;60.03;;
8650;SDS011;4363;52.346;14.516;2022-11-24T15:54:58;306.90;;;62.27;;
8650;SDS011;4363;52.346;14.516;2022-11-24T15:57:24;290.20;;;53.33;;
8650;SDS011;4363;52.346;14.516;2022-11-24T15:59:51;340.00;;;65.63;;
8650;SDS011;4363;52.346;14.516;2022-11-24T16:02:17;222.50;;;47.83;;
8650;SDS011;4363;52.346;14.516;2022-11-24T16:04:45;372.87;;;70.40;;
8650;SDS011;4363;52.346;14.516;2022-11-24T16:07:11;196.50;;;36.00;;